Time;durP1;ratioP1;P1;durP2;ratioP2;P2;SDS_P1;SDS_P2;PMS_P1;PMS_P2;Temp;Humidity;BMP_temperature;BMP_pressure;BME280_temperature;BME280_humidity;BME280_pressure;Samples;Min_cycle;Max_cycle;Signal;HPM_P1;HPM_P2
2022/02/02 00:00:18;;;;;;;12.88;4.00;;;;;;;;;;5077288;28;20642;-76
2022/02/02 00:02:48;;;;;;;18.02;3.83;;;;;;;;;;5080745;28;20201;-76
2022/02/02 00:05:22;;;;;;;24.40;5.85;;;;;;;;;;5081221;28;20205;-75
2022/02/02 00:07:54;;;;;;;20.00;4.05;;;;;;;;;;5082059;28;20284;-75
2022/02/02 00:13:07;;;;;;;17.23;5.30;;;;;;;;;;5079738;28;20197;-75
2022/02/02 00:15:45;;;;;;;21.90;4.70;;;;;;;;;;5081263;28;20198;-76
2022/02/02 00:18:39;;;;;;;16.55;4.95;;;;;;;;;;5076569;28;20193;-77
2022/02/02 00:21:06;;;;;;;22.83;4.97;;;;;;;;;;5072485;28;20227;-77
2022/02/02 00:23:38;;;;;;;20.33;4.28;;;;;;;;;;5074788;28;20206;-76
2022/02/02 00:26:11;;;;;;;18.50;4.50;;;;;;;;;;5077268;28;20193;-76
2022/02/02 00:28:42;;;;;;;12.57;3.20;;;;;;;;;;5076621;28;20208;-76
2022/02/02 00:31:15;;;;;;;12.93;4.28;;;;;;;;;;5081713;28;20652;-77
2022/02/02 00:33:45;;;;;;;19.80;4.15;;;;;;;;;;5087462;28;20212;-77
2022/02/02 00:36:16;;;;;;;12.77;3.97;;;;;;;;;;5085226;28;20200;-77
2022/02/02 00:38:43;;;;;;;19.67;5.65;;;;;;;;;;5080307;28;20669;-77
2022/02/02 00:41:12;;;;;;;21.58;4.13;;;;;;;;;;5079221;28;20577;-78
2022/02/02 00:43:41;;;;;;;15.75;3.60;;;;;;;;;;5071259;28;20202;-77
2022/02/02 00:46:08;;;;;;;15.63;5.10;;;;;;;;;;5070686;28;20249;-77
2022/02/02 00:48:36;;;;;;;14.52;3.67;;;;;;;;;;5073784;28;20205;-78
2022/02/02 00:51:03;;;;;;;15.93;3.90;;;;;;;;;;5085254;28;20653;-77
2022/02/02 00:53:30;;;;;;;10.93;3.58;;;;;;;;;;5085307;28;20220;-77
2022/02/02 00:55:57;;;;;;;15.45;5.00;;;;;;;;;;5084870;28;20200;-75
2022/02/02 00:58:26;;;;;;;22.08;4.80;;;;;;;;;;5085422;28;20645;-74
2022/02/02 01:00:53;;;;;;;15.18;5.00;;;;;;;;;;5079326;28;20206;-76
2022/02/02 01:03:20;;;;;;;19.10;4.55;;;;;;;;;;5072392;28;20198;-76
2022/02/02 01:05:47;;;;;;;17.05;3.63;;;;;;;;;;5079078;28;20210;-77
2022/02/02 01:11:30;;;;;;;13.88;4.35;;;;;;;;;;5118221;27;20550;-73
2022/02/02 01:20:00;;;;;;;12.07;4.53;;;;;;;;;;5031065;28;20195;-74
2022/02/02 01:27:54;;;;;;;10.52;3.00;;;;;;;;;;5092784;28;20200;-73
2022/02/02 01:30:23;;;;;;;10.07;4.07;;;;;;;;;;5096987;28;20567;-73
2022/02/02 01:32:50;;;;;;;9.95;3.90;;;;;;;;;;5092818;28;20323;-73
2022/02/02 01:35:18;;;;;;;6.28;2.90;;;;;;;;;;5097895;28;20200;-73
2022/02/02 01:37:46;;;;;;;17.70;4.50;;;;;;;;;;5099290;28;20246;-73
2022/02/02 01:40:20;;;;;;;23.33;4.53;;;;;;;;;;5105491;28;20196;-73
2022/02/02 01:42:53;;;;;;;20.75;4.25;;;;;;;;;;5102025;28;20204;-73
2022/02/02 01:45:27;;;;;;;13.25;4.07;;;;;;;;;;5106778;28;20205;-72
2022/02/02 01:48:06;;;;;;;12.43;3.53;;;;;;;;;;5104984;28;20204;-73
2022/02/02 01:50:50;;;;;;;10.90;3.22;;;;;;;;;;5102670;28;20596;-73
2022/02/02 01:53:25;;;;;;;12.93;3.90;;;;;;;;;;5107398;28;20216;-73
2022/02/02 01:55:52;;;;;;;17.65;4.53;;;;;;;;;;5105713;28;20192;-73
2022/02/02 01:58:38;;;;;;;14.10;4.30;;;;;;;;;;5106945;28;20208;-73
2022/02/02 02:01:07;;;;;;;12.80;4.20;;;;;;;;;;5100143;28;20200;-73
2022/02/02 02:03:34;;;;;;;12.73;3.38;;;;;;;;;;5106761;28;20255;-73
2022/02/02 02:06:02;;;;;;;19.25;3.78;;;;;;;;;;5105072;28;20201;-73
2022/02/02 02:08:29;;;;;;;11.57;3.00;;;;;;;;;;5107502;28;20190;-73
2022/02/02 02:10:57;;;;;;;19.45;3.65;;;;;;;;;;5106507;28;20212;-73
2022/02/02 02:13:50;;;;;;;12.02;3.70;;;;;;;;;;5106764;28;20212;-73
2022/02/02 02:16:19;;;;;;;16.83;5.10;;;;;;;;;;5100392;28;20200;-73
2022/02/02 02:18:46;;;;;;;14.25;4.65;;;;;;;;;;5105068;28;20220;-73
2022/02/02 02:21:15;;;;;;;8.23;3.13;;;;;;;;;;5091874;28;20205;-73
2022/02/02 02:23:45;;;;;;;12.88;3.53;;;;;;;;;;5087995;28;20197;-73
2022/02/02 02:26:20;;;;;;;16.48;3.90;;;;;;;;;;5093324;28;20209;-73
2022/02/02 02:28:57;;;;;;;10.23;3.83;;;;;;;;;;5092719;28;20189;-73
2022/02/02 02:31:32;;;;;;;12.40;3.67;;;;;;;;;;5082626;28;20706;-73
2022/02/02 02:34:16;;;;;;;16.65;3.80;;;;;;;;;;5083897;28;20637;-73
2022/02/02 02:37:03;;;;;;;12.38;3.95;;;;;;;;;;5083598;28;20290;-73
2022/02/02 02:39:43;;;;;;;14.95;3.92;;;;;;;;;;5092716;28;20204;-73
2022/02/02 02:56:02;;;;;;;13.85;4.28;;;;;;;;;;5052680;28;20301;-73
2022/02/02 02:58:56;;;;;;;14.45;5.38;;;;;;;;;;5088223;28;20194;-73
2022/02/02 03:01:32;;;;;;;21.08;3.95;;;;;;;;;;5092111;28;20216;-73
2022/02/02 03:31:50;;;;;;;15.82;3.78;;;;;;;;;;5091330;28;20224;-73
2022/02/02 03:34:43;;;;;;;16.20;4.25;;;;;;;;;;5091469;28;20193;-73
2022/02/02 03:59:33;;;;;;;11.52;4.13;;;;;;;;;;5086666;28;20197;-73
2022/02/02 04:02:14;;;;;;;11.10;3.80;;;;;;;;;;5080670;28;20240;-73
2022/02/02 04:04:46;;;;;;;9.50;4.57;;;;;;;;;;5090054;28;20194;-73
2022/02/02 04:07:19;;;;;;;10.68;3.47;;;;;;;;;;5086419;28;20200;-74
2022/02/02 04:09:47;;;;;;;19.35;4.90;;;;;;;;;;5089054;28;20221;-73
2022/02/02 04:12:25;;;;;;;19.63;3.72;;;;;;;;;;5089342;28;20194;-73
2022/02/02 04:17:53;;;;;;;19.73;3.95;;;;;;;;;;5057942;28;21004;-74
2022/02/02 04:53:59;;;;;;;11.82;3.97;;;;;;;;;;5064288;28;20200;-73
2022/02/02 04:56:36;;;;;;;10.82;3.55;;;;;;;;;;5086931;28;20599;-74
2022/02/02 04:59:14;;;;;;;13.77;3.90;;;;;;;;;;5083868;28;20668;-73
2022/02/02 05:05:03;;;;;;;21.75;4.90;;;;;;;;;;5090793;28;20193;-73
2022/02/02 05:07:38;;;;;;;15.13;3.72;;;;;;;;;;5086148;28;20582;-73
2022/02/02 05:10:14;;;;;;;16.98;4.13;;;;;;;;;;5089099;28;20222;-73
2022/02/02 05:16:02;;;;;;;14.05;4.35;;;;;;;;;;5070785;28;20205;-73
2022/02/02 05:21:42;;;;;;;14.02;3.65;;;;;;;;;;5079543;28;20213;-74
2022/02/02 05:44:01;;;;;;;12.02;2.72;;;;;;;;;;5003866;28;20192;-73
2022/02/02 05:49:31;;;;;;;8.10;3.55;;;;;;;;;;5087491;28;20225;-73
2022/02/02 05:51:59;;;;;;;8.68;2.70;;;;;;;;;;5080128;28;20700;-74
2022/02/02 05:54:26;;;;;;;8.48;2.63;;;;;;;;;;5084670;28;20284;-74
2022/02/02 05:56:55;;;;;;;15.27;3.38;;;;;;;;;;5081838;28;20215;-74
2022/02/02 05:59:23;;;;;;;10.38;3.25;;;;;;;;;;5093037;28;20213;-74
2022/02/02 06:01:51;;;;;;;7.55;2.75;;;;;;;;;;5093487;28;20205;-74
2022/02/02 06:04:21;;;;;;;5.53;2.05;;;;;;;;;;5094670;28;20244;-74
2022/02/02 06:06:49;;;;;;;14.23;3.53;;;;;;;;;;5081998;28;20194;-73
2022/02/02 06:09:17;;;;;;;8.27;2.72;;;;;;;;;;5092277;28;20582;-73
2022/02/02 06:11:44;;;;;;;10.20;2.90;;;;;;;;;;5093663;28;20209;-74
2022/02/02 06:14:13;;;;;;;9.93;2.70;;;;;;;;;;5094530;28;20197;-74
2022/02/02 06:16:42;;;;;;;9.95;2.70;;;;;;;;;;5091212;28;20285;-74
2022/02/02 06:19:09;;;;;;;11.63;3.72;;;;;;;;;;5092729;28;20251;-73
2022/02/02 06:21:37;;;;;;;5.90;2.95;;;;;;;;;;5092055;28;20204;-73
2022/02/02 06:24:07;;;;;;;7.43;3.90;;;;;;;;;;5090105;28;20560;-73
2022/02/02 06:26:35;;;;;;;17.10;2.88;;;;;;;;;;5091624;28;20228;-73
2022/02/02 06:29:04;;;;;;;12.55;3.65;;;;;;;;;;5091123;28;20644;-73
2022/02/02 06:31:35;;;;;;;9.35;2.83;;;;;;;;;;5083505;28;20221;-73
2022/02/02 06:34:02;;;;;;;10.77;2.65;;;;;;;;;;5092834;28;20564;-73
2022/02/02 06:36:30;;;;;;;11.20;2.85;;;;;;;;;;5091822;28;20209;-73
2022/02/02 06:38:57;;;;;;;10.57;3.40;;;;;;;;;;5090950;28;20652;-73
2022/02/02 06:41:25;;;;;;;8.00;2.95;;;;;;;;;;5089633;28;20268;-73
2022/02/02 06:43:54;;;;;;;15.02;3.55;;;;;;;;;;5090860;28;20193;-73
2022/02/02 06:46:22;;;;;;;6.57;2.10;;;;;;;;;;5092699;28;20196;-73
2022/02/02 06:48:51;;;;;;;9.50;2.92;;;;;;;;;;5093109;28;20228;-73
2022/02/02 06:51:30;;;;;;;5.80;3.17;;;;;;;;;;5090274;28;20213;-73
2022/02/02 06:54:01;;;;;;;7.68;2.33;;;;;;;;;;5084482;28;20200;-73
2022/02/02 06:56:39;;;;;;;14.15;3.40;;;;;;;;;;5091099;28;20676;-73
2022/02/02 06:59:21;;;;;;;4.47;1.85;;;;;;;;;;5089649;28;20283;-73
2022/02/02 07:02:01;;;;;;;4.65;2.55;;;;;;;;;;5092018;28;20261;-72
2022/02/02 07:04:52;;;;;;;16.73;3.13;;;;;;;;;;5092911;28;20190;-73
2022/02/02 07:07:36;;;;;;;10.73;2.30;;;;;;;;;;5086497;28;20583;-73
2022/02/02 07:10:14;;;;;;;9.60;1.85;;;;;;;;;;5089933;28;20201;-73
2022/02/02 07:12:53;;;;;;;11.48;2.80;;;;;;;;;;5091520;28;20212;-73
2022/02/02 07:15:26;;;;;;;7.53;2.30;;;;;;;;;;5080929;28;20220;-73
2022/02/02 07:18:10;;;;;;;3.95;2.00;;;;;;;;;;5089914;28;20284;-73
2022/02/02 07:20:47;;;;;;;9.02;3.00;;;;;;;;;;5090206;28;20193;-73
2022/02/02 07:26:24;;;;;;;12.73;2.90;;;;;;;;;;5075696;28;20217;-74
2022/02/02 07:29:00;;;;;;;8.18;2.92;;;;;;;;;;5082359;28;20247;-73
2022/02/02 07:31:37;;;;;;;7.35;1.88;;;;;;;;;;5085323;28;20219;-74
2022/02/02 07:34:12;;;;;;;5.60;2.15;;;;;;;;;;5087077;28;20242;-74
2022/02/02 07:36:43;;;;;;;6.63;3.00;;;;;;;;;;5090348;28;20529;-73
2022/02/02 07:39:13;;;;;;;14.13;3.50;;;;;;;;;;5090833;28;20204;-73
2022/02/02 07:41:46;;;;;;;6.07;2.13;;;;;;;;;;5091400;28;20212;-73
2022/02/02 07:44:17;;;;;;;9.77;3.10;;;;;;;;;;5085951;28;20186;-73
2022/02/02 07:46:45;;;;;;;8.40;2.67;;;;;;;;;;5086057;28;20198;-73
2022/02/02 07:49:13;;;;;;;7.97;3.80;;;;;;;;;;5089978;28;20193;-73
2022/02/02 07:51:41;;;;;;;6.50;2.50;;;;;;;;;;5088705;28;20209;-76
2022/02/02 07:54:17;;;;;;;13.10;3.50;;;;;;;;;;5089360;28;20552;-75
2022/02/02 07:56:47;;;;;;;6.65;2.10;;;;;;;;;;5088674;28;20233;-76
2022/02/02 07:59:22;;;;;;;6.45;2.33;;;;;;;;;;5088263;28;20193;-78
2022/02/02 08:01:51;;;;;;;15.00;3.83;;;;;;;;;;5089401;28;20228;-75
2022/02/02 08:04:21;;;;;;;6.85;2.10;;;;;;;;;;5090645;28;20284;-76
2022/02/02 08:06:52;;;;;;;8.80;2.45;;;;;;;;;;5089997;28;20197;-75
2022/02/02 08:09:28;;;;;;;6.07;2.45;;;;;;;;;;5090236;28;20625;-75
2022/02/02 08:11:58;;;;;;;5.88;1.85;;;;;;;;;;5073673;28;20236;-75
2022/02/02 08:14:27;;;;;;;7.65;2.13;;;;;;;;;;5086407;28;20231;-75
2022/02/02 08:16:54;;;;;;;7.20;1.83;;;;;;;;;;5089186;28;20648;-75
2022/02/02 08:19:22;;;;;;;3.67;1.60;;;;;;;;;;5087815;28;20593;-75
2022/02/02 08:21:49;;;;;;;10.02;2.47;;;;;;;;;;5089062;28;20224;-75
2022/02/02 08:24:18;;;;;;;4.65;1.95;;;;;;;;;;5089145;28;20193;-75
2022/02/02 08:26:45;;;;;;;5.40;2.08;;;;;;;;;;5083225;28;20205;-74
2022/02/02 08:29:14;;;;;;;4.80;2.13;;;;;;;;;;5083598;28;20205;-75
2022/02/02 08:31:41;;;;;;;4.43;2.13;;;;;;;;;;5089944;28;20655;-75
2022/02/02 08:34:11;;;;;;;10.38;2.80;;;;;;;;;;5091656;28;20662;-79
2022/02/02 08:36:38;;;;;;;5.35;2.50;;;;;;;;;;5083050;28;20255;-76
2022/02/02 08:39:16;;;;;;;5.82;2.60;;;;;;;;;;5091488;28;20654;-73
2022/02/02 08:41:48;;;;;;;10.85;2.63;;;;;;;;;;5089422;28;20193;-73
2022/02/02 08:44:20;;;;;;;8.23;2.20;;;;;;;;;;5090000;28;20268;-73
2022/02/02 08:46:56;;;;;;;6.38;2.22;;;;;;;;;;5078844;28;20213;-74
2022/02/02 08:49:23;;;;;;;5.85;2.25;;;;;;;;;;5086720;28;20533;-73
2022/02/02 08:51:50;;;;;;;4.57;1.98;;;;;;;;;;5088072;28;20687;-73
2022/02/02 08:54:29;;;;;;;5.40;3.17;;;;;;;;;;5090167;28;20205;-73
2022/02/02 08:59:57;;;;;;;9.32;2.65;;;;;;;;;;5054673;28;20202;-73
2022/02/02 09:02:28;;;;;;;7.72;2.15;;;;;;;;;;5088957;28;20185;-73
2022/02/02 09:07:41;;;;;;;7.53;2.20;;;;;;;;;;5088583;28;20250;-73
2022/02/02 09:10:11;;;;;;;7.40;2.33;;;;;;;;;;5089239;28;20275;-73
2022/02/02 09:24:00;;;;;;;6.32;2.65;;;;;;;;;;5085922;28;20189;-73
2022/02/02 09:32:14;;;;;;;6.00;2.65;;;;;;;;;;5091493;28;20224;-73
2022/02/02 09:34:41;;;;;;;5.35;1.67;;;;;;;;;;5093273;28;20200;-74
2022/02/02 09:37:08;;;;;;;8.23;2.42;;;;;;;;;;5091451;28;20204;-73
2022/02/02 09:39:41;;;;;;;5.63;2.58;;;;;;;;;;5092941;28;20193;-74
2022/02/02 09:42:12;;;;;;;10.07;2.70;;;;;;;;;;5088705;28;20694;-73
2022/02/02 09:44:42;;;;;;;10.82;3.85;;;;;;;;;;5094185;28;20197;-74
2022/02/02 09:47:19;;;;;;;5.28;2.15;;;;;;;;;;5094309;28;20756;-74
2022/02/02 09:49:55;;;;;;;5.53;1.95;;;;;;;;;;5093199;28;20648;-73
2022/02/02 09:52:25;;;;;;;7.13;2.25;;;;;;;;;;5090025;28;20692;-74
2022/02/02 09:55:02;;;;;;;10.50;2.95;;;;;;;;;;5092447;28;20185;-73
2022/02/02 10:00:33;;;;;;;5.00;1.92;;;;;;;;;;5076837;28;20189;-74
2022/02/02 10:03:20;;;;;;;9.55;2.72;;;;;;;;;;5093517;28;20197;-73
2022/02/02 10:05:59;;;;;;;11.73;3.15;;;;;;;;;;5092049;28;20193;-74
2022/02/02 10:08:52;;;;;;;6.30;2.15;;;;;;;;;;5095217;28;20555;-74
2022/02/02 10:11:49;;;;;;;8.93;3.20;;;;;;;;;;5089527;28;20240;-73
2022/02/02 10:14:32;;;;;;;7.10;2.10;;;;;;;;;;5092584;28;20636;-73
2022/02/02 10:16:59;;;;;;;8.27;2.63;;;;;;;;;;5094400;28;20656;-74
2022/02/02 10:19:32;;;;;;;12.23;3.38;;;;;;;;;;5085144;28;20648;-73
2022/02/02 10:21:59;;;;;;;14.48;3.35;;;;;;;;;;5083360;28;20201;-73
2022/02/02 10:24:41;;;;;;;5.40;2.03;;;;;;;;;;5086863;28;20201;-73
2022/02/02 10:27:22;;;;;;;14.45;3.63;;;;;;;;;;5085332;28;20197;-73
2022/02/02 10:29:49;;;;;;;8.30;2.92;;;;;;;;;;5079545;28;20208;-73
2022/02/02 10:32:36;;;;;;;8.98;2.53;;;;;;;;;;5087500;28;20225;-73
2022/02/02 10:35:04;;;;;;;9.85;3.90;;;;;;;;;;5086681;28;20201;-73
2022/02/02 10:37:33;;;;;;;9.68;2.55;;;;;;;;;;5087229;28;20488;-74
2022/02/02 10:40:00;;;;;;;8.15;2.78;;;;;;;;;;5085744;28;20209;-73
2022/02/02 10:42:39;;;;;;;8.02;2.83;;;;;;;;;;5089559;28;20250;-73
2022/02/02 10:45:19;;;;;;;7.80;2.95;;;;;;;;;;5087227;28;20201;-73
2022/02/02 10:47:48;;;;;;;6.47;1.95;;;;;;;;;;5087448;28;20205;-73
2022/02/02 10:50:22;;;;;;;10.32;2.35;;;;;;;;;;5087613;28;20202;-73
2022/02/02 10:53:14;;;;;;;9.65;2.75;;;;;;;;;;5086130;28;20288;-74
2022/02/02 10:55:59;;;;;;;4.57;2.50;;;;;;;;;;5087789;28;20746;-73
2022/02/02 10:58:40;;;;;;;8.50;2.90;;;;;;;;;;5089001;28;20193;-73
2022/02/02 11:01:23;;;;;;;8.10;2.40;;;;;;;;;;5077560;28;20279;-73
2022/02/02 11:06:40;;;;;;;6.68;2.95;;;;;;;;;;5086985;28;20223;-74
2022/02/02 11:09:08;;;;;;;14.57;3.20;;;;;;;;;;5087534;28;20212;-73
2022/02/02 11:11:40;;;;;;;10.20;2.33;;;;;;;;;;5084111;28;20224;-73
2022/02/02 11:14:10;;;;;;;9.93;2.80;;;;;;;;;;5088403;28;20254;-73
2022/02/02 11:16:38;;;;;;;11.35;3.60;;;;;;;;;;5086032;28;20190;-73
2022/02/02 11:19:08;;;;;;;11.20;3.75;;;;;;;;;;5082877;28;20208;-72
2022/02/02 11:21:37;;;;;;;11.13;2.50;;;;;;;;;;5086259;28;20200;-73
2022/02/02 11:24:15;;;;;;;6.95;2.70;;;;;;;;;;5087265;28;20202;-73
2022/02/02 11:26:42;;;;;;;22.63;4.00;;;;;;;;;;5081695;28;20204;-72
2022/02/02 11:29:10;;;;;;;9.52;2.70;;;;;;;;;;5088285;28;20198;-73
2022/02/02 11:31:57;;;;;;;11.23;2.95;;;;;;;;;;5085762;28;20730;-73
2022/02/02 11:34:24;;;;;;;10.95;3.90;;;;;;;;;;5087056;28;20209;-72
2022/02/02 11:36:57;;;;;;;8.07;2.40;;;;;;;;;;5088435;28;20227;-73
2022/02/02 11:39:36;;;;;;;5.15;2.13;;;;;;;;;;5087339;28;20197;-73
2022/02/02 11:42:13;;;;;;;5.82;2.30;;;;;;;;;;5082220;28;20201;-73
2022/02/02 11:44:54;;;;;;;11.65;2.95;;;;;;;;;;5085860;28;20197;-73
2022/02/02 11:47:40;;;;;;;7.88;3.05;;;;;;;;;;5087749;28;20201;-72
2022/02/02 11:50:08;;;;;;;10.60;2.95;;;;;;;;;;5087086;28;20411;-73
2022/02/02 11:52:38;;;;;;;4.78;2.17;;;;;;;;;;5088145;28;20221;-73
2022/02/02 11:55:06;;;;;;;5.07;2.20;;;;;;;;;;5085993;28;20201;-73
2022/02/02 11:57:52;;;;;;;7.95;2.30;;;;;;;;;;5088029;28;20197;-73
2022/02/02 12:00:29;;;;;;;6.95;2.67;;;;;;;;;;5080448;28;20221;-73
2022/02/02 12:03:15;;;;;;;11.90;2.75;;;;;;;;;;5083768;28;20204;-73
2022/02/02 12:08:39;;;;;;;7.82;2.53;;;;;;;;;;5062143;28;20374;-73
2022/02/02 12:11:28;;;;;;;8.65;2.03;;;;;;;;;;5085079;28;20646;-72
2022/02/02 12:47:28;;;;;;;9.18;2.47;;;;;;;;;;5085712;28;20208;-73
2022/02/02 12:50:28;;;;;;;6.13;1.90;;;;;;;;;;5084748;28;20630;-72
2022/02/02 13:02:06;;;;;;;4.90;1.90;;;;;;;;;;5073602;28;20292;-72
2022/02/02 13:04:33;;;;;;;6.85;2.30;;;;;;;;;;5085865;28;20224;-72
2022/02/02 13:07:11;;;;;;;12.43;2.05;;;;;;;;;;5086434;28;20208;-72
2022/02/02 13:09:38;;;;;;;7.13;2.47;;;;;;;;;;5085899;28;20567;-73
2022/02/02 13:12:18;;;;;;;4.43;1.80;;;;;;;;;;5086341;28;20270;-73
2022/02/02 13:15:06;;;;;;;8.73;2.30;;;;;;;;;;5084318;28;20190;-72
2022/02/02 13:17:41;;;;;;;6.13;1.80;;;;;;;;;;5085853;28;20200;-72
2022/02/02 13:20:11;;;;;;;9.55;2.10;;;;;;;;;;5083103;28;20242;-72
2022/02/02 13:22:40;;;;;;;5.63;1.83;;;;;;;;;;5085147;28;20201;-72
2022/02/02 13:25:18;;;;;;;9.82;2.03;;;;;;;;;;5084240;28;20217;-72
2022/02/02 13:27:47;;;;;;;5.22;2.33;;;;;;;;;;5087672;28;20203;-73
2022/02/02 13:30:29;;;;;;;4.00;1.73;;;;;;;;;;5080765;28;20397;-73
2022/02/02 13:33:07;;;;;;;6.80;2.33;;;;;;;;;;5072359;28;20217;-73
2022/02/02 13:35:41;;;;;;;5.68;1.60;;;;;;;;;;5085038;28;20201;-73
2022/02/02 13:38:19;;;;;;;3.72;1.52;;;;;;;;;;5090641;28;20182;-72
2022/02/02 13:43:51;;;;;;;1.95;1.27;;;;;;;;;;5090599;28;20243;-72
2022/02/02 13:46:38;;;;;;;2.85;1.58;;;;;;;;;;5087920;28;20446;-72
2022/02/02 13:49:35;;;;;;;5.22;2.35;;;;;;;;;;5095183;28;20190;-71
2022/02/02 13:52:23;;;;;;;6.95;1.80;;;;;;;;;;5086417;28;20198;-73
2022/02/02 13:55:05;;;;;;;2.92;1.30;;;;;;;;;;5085879;28;20560;-73
2022/02/02 14:00:32;;;;;;;6.07;1.30;;;;;;;;;;5060264;28;20201;-72
2022/02/02 14:25:52;;;;;;;5.32;1.50;;;;;;;;;;5093767;28;20572;-72
2022/02/02 14:31:09;;;;;;;6.30;1.38;;;;;;;;;;5078618;28;20213;-72
2022/02/02 14:33:36;;;;;;;5.53;1.42;;;;;;;;;;5091832;28;20241;-72
2022/02/02 14:36:05;;;;;;;6.72;1.98;;;;;;;;;;5080355;28;20217;-72
2022/02/02 14:38:40;;;;;;;6.07;2.22;;;;;;;;;;5074087;28;20569;-72
2022/02/02 14:41:14;;;;;;;6.18;1.65;;;;;;;;;;5078591;28;20189;-72
2022/02/02 14:43:48;;;;;;;3.05;1.10;;;;;;;;;;5092372;28;20249;-72
2022/02/02 14:46:20;;;;;;;5.60;1.30;;;;;;;;;;5088430;28;20194;-73
2022/02/02 14:48:52;;;;;;;6.97;1.33;;;;;;;;;;5093960;28;20642;-72
2022/02/02 14:51:37;;;;;;;2.35;1.45;;;;;;;;;;5084477;28;20197;-72
2022/02/02 14:54:14;;;;;;;2.90;1.65;;;;;;;;;;5083642;28;20691;-72
2022/02/02 15:05:39;;;;;;;2.95;1.85;;;;;;;;;;5092471;28;21179;-73
2022/02/02 15:25:08;;;;;;;3.67;1.42;;;;;;;;;;5092187;28;20225;-73
2022/02/02 15:27:39;;;;;;;2.63;1.63;;;;;;;;;;5086762;28;20701;-73
2022/02/02 15:30:23;;;;;;;2.13;1.17;;;;;;;;;;5087194;28;20740;-73
2022/02/02 15:32:52;;;;;;;2.80;1.48;;;;;;;;;;5089787;28;20224;-73
2022/02/02 15:35:20;;;;;;;4.07;1.23;;;;;;;;;;5089795;28;20262;-73
2022/02/02 15:37:56;;;;;;;3.28;1.38;;;;;;;;;;5090203;28;20254;-72
2022/02/02 15:40:28;;;;;;;3.70;1.50;;;;;;;;;;5091183;28;20204;-74
2022/02/02 15:59:46;;;;;;;5.35;1.60;;;;;;;;;;5083595;28;20193;-73
2022/02/02 16:02:15;;;;;;;1.67;1.17;;;;;;;;;;5089665;28;20201;-73
2022/02/02 16:04:42;;;;;;;2.95;1.63;;;;;;;;;;5092206;28;20291;-73
2022/02/02 16:07:12;;;;;;;6.30;1.13;;;;;;;;;;5076386;28;20285;-73
2022/02/02 16:09:49;;;;;;;3.10;1.13;;;;;;;;;;5080677;28;20201;-73
2022/02/02 16:12:21;;;;;;;3.60;1.35;;;;;;;;;;5086385;28;20205;-73
2022/02/02 16:14:58;;;;;;;7.10;1.30;;;;;;;;;;5089050;28;20205;-73
2022/02/02 16:17:44;;;;;;;3.72;2.28;;;;;;;;;;5091605;28;20197;-72
2022/02/02 16:31:40;;;;;;;3.20;1.33;;;;;;;;;;5085511;28;20200;-73
2022/02/02 16:36:58;;;;;;;3.58;1.50;;;;;;;;;;5077269;28;20672;-73
2022/02/02 16:39:25;;;;;;;3.20;1.40;;;;;;;;;;5089931;28;20197;-73
2022/02/02 16:44:38;;;;;;;1.85;1.27;;;;;;;;;;5087830;28;20196;-73
2022/02/02 16:47:07;;;;;;;4.03;1.42;;;;;;;;;;5086597;28;20197;-72
2022/02/02 16:49:34;;;;;;;3.15;1.63;;;;;;;;;;5081053;28;20646;-72
2022/02/02 16:52:01;;;;;;;3.40;0.98;;;;;;;;;;5088553;28;20201;-73
2022/02/02 16:54:32;;;;;;;2.25;1.40;;;;;;;;;;5074593;28;20696;-72
2022/02/02 16:57:12;;;;;;;6.10;1.95;;;;;;;;;;5075836;28;20197;-72
2022/02/02 17:25:16;;;;;;;2.75;1.70;;;;;;;;;;5053528;28;20224;-73
2022/02/02 17:30:29;;;;;;;4.43;2.67;;;;;;;;;;5085131;28;20235;-73
2022/02/02 17:33:02;;;;;;;1.70;1.33;;;;;;;;;;5090981;28;20220;-73
2022/02/02 17:35:39;;;;;;;5.43;1.65;;;;;;;;;;5088766;28;20185;-72
2022/02/02 17:38:14;;;;;;;3.15;1.60;;;;;;;;;;5085335;28;20217;-73
2022/02/02 17:40:56;;;;;;;3.00;1.90;;;;;;;;;;5071948;28;20190;-72
2022/02/02 17:43:59;;;;;;;6.65;2.10;;;;;;;;;;5079175;28;20190;-73
2022/02/02 18:19:57;;;;;;;5.75;2.85;;;;;;;;;;5093325;28;20710;-72
2022/02/02 18:22:30;;;;;;;4.97;1.95;;;;;;;;;;5077214;28;20551;-72
2022/02/02 18:25:05;;;;;;;4.28;2.80;;;;;;;;;;5088136;28;20209;-72
2022/02/02 18:27:41;;;;;;;5.30;2.55;;;;;;;;;;5093215;28;20189;-73
2022/02/02 18:30:22;;;;;;;4.90;3.03;;;;;;;;;;5086748;28;20742;-72
2022/02/02 18:33:02;;;;;;;4.80;2.35;;;;;;;;;;5092297;28;20215;-72
2022/02/02 18:35:35;;;;;;;4.88;3.30;;;;;;;;;;5090502;28;20286;-73
2022/02/02 18:46:33;;;;;;;5.28;3.25;;;;;;;;;;5088236;28;20200;-72
2022/02/02 18:49:07;;;;;;;4.43;3.28;;;;;;;;;;5085865;28;20193;-73
2022/02/02 18:54:39;;;;;;;6.13;3.15;;;;;;;;;;5055961;28;20718;-72
2022/02/02 18:57:35;;;;;;;3.42;2.78;;;;;;;;;;5091161;28;20715;-73
2022/02/02 19:06:08;;;;;;;6.70;3.60;;;;;;;;;;5049162;28;20604;-73
2022/02/02 19:31:15;;;;;;;4.47;4.05;;;;;;;;;;5090788;28;20754;-73
2022/02/02 19:54:14;;;;;;;9.02;5.03;;;;;;;;;;5086455;28;20196;-72
2022/02/02 19:56:22;;;;;;;9.80;6.25;;;;;;;;;;5088998;28;20197;-73
2022/02/02 20:02:04;;;;;;;7.18;4.40;;;;;;;;;;5091007;28;20773;-73
2022/02/02 20:04:41;;;;;;;12.65;6.70;;;;;;;;;;5089404;28;20250;-73
2022/02/02 20:07:23;;;;;;;12.30;5.22;;;;;;;;;;5090288;28;20365;-74
2022/02/02 20:12:37;;;;;;;20.20;7.72;;;;;;;;;;5089351;28;20282;-74
2022/02/02 20:15:05;;;;;;;7.43;5.75;;;;;;;;;;5070760;28;20225;-74
2022/02/02 20:17:33;;;;;;;12.13;7.25;;;;;;;;;;5089253;28;20201;-72
2022/02/02 20:20:12;;;;;;;12.27;5.50;;;;;;;;;;5090526;28;20288;-74
2022/02/02 20:22:39;;;;;;;12.35;6.30;;;;;;;;;;5091106;28;20216;-74
2022/02/02 20:25:08;;;;;;;17.35;7.93;;;;;;;;;;5090964;28;20209;-74
2022/02/02 20:27:36;;;;;;;10.10;5.97;;;;;;;;;;5089599;28;20240;-74
2022/02/02 20:30:05;;;;;;;13.93;7.43;;;;;;;;;;5088447;28;20273;-74
2022/02/02 20:32:32;;;;;;;11.90;6.22;;;;;;;;;;5091283;28;20186;-73
2022/02/02 20:34:59;;;;;;;13.25;6.25;;;;;;;;;;5090560;28;20221;-73
2022/02/02 20:37:28;;;;;;;11.85;6.38;;;;;;;;;;5088440;28;20194;-73
2022/02/02 20:39:59;;;;;;;10.10;5.65;;;;;;;;;;5087609;28;20266;-73
2022/02/02 20:42:33;;;;;;;12.23;6.53;;;;;;;;;;5089958;28;20529;-73
2022/02/02 20:45:29;;;;;;;17.58;7.20;;;;;;;;;;5083360;28;20538;-73
2022/02/02 21:10:13;;;;;;;17.70;7.35;;;;;;;;;;5067068;28;20237;-73
2022/02/02 21:15:28;;;;;;;16.27;6.43;;;;;;;;;;5079136;28;20227;-73
2022/02/02 21:17:58;;;;;;;9.52;6.45;;;;;;;;;;5091254;28;20197;-73
2022/02/02 21:20:31;;;;;;;6.85;5.72;;;;;;;;;;5088173;28;20204;-73
2022/02/02 21:23:02;;;;;;;8.43;5.45;;;;;;;;;;5088241;28;20660;-73
2022/02/02 21:25:36;;;;;;;10.45;6.53;;;;;;;;;;5087715;28;20296;-74
2022/02/02 21:28:04;;;;;;;11.75;5.32;;;;;;;;;;5093273;28;20201;-73
2022/02/02 21:30:31;;;;;;;14.02;6.72;;;;;;;;;;5092763;28;20217;-74
2022/02/02 21:32:58;;;;;;;11.82;7.18;;;;;;;;;;5094500;28;20194;-73
2022/02/02 21:35:26;;;;;;;10.07;6.47;;;;;;;;;;5092366;28;20579;-74
2022/02/02 21:38:01;;;;;;;9.93;5.97;;;;;;;;;;5090547;28;20206;-73
2022/02/02 21:40:29;;;;;;;15.35;7.50;;;;;;;;;;5092884;28;20196;-74
2022/02/02 21:42:58;;;;;;;11.82;6.85;;;;;;;;;;5092284;28;20220;-73
2022/02/02 21:45:26;;;;;;;8.73;5.93;;;;;;;;;;5092938;28;20296;-73
2022/02/02 21:47:53;;;;;;;8.25;6.47;;;;;;;;;;5094992;28;20204;-73
2022/02/02 21:50:20;;;;;;;12.27;5.95;;;;;;;;;;5089285;28;20212;-73
2022/02/02 21:52:48;;;;;;;10.38;5.00;;;;;;;;;;5092770;28;20612;-74
2022/02/02 21:55:16;;;;;;;10.60;6.07;;;;;;;;;;5079145;28;20246;-74
2022/02/02 21:57:44;;;;;;;11.60;7.05;;;;;;;;;;5092061;28;20688;-72
2022/02/02 22:00:14;;;;;;;10.35;6.15;;;;;;;;;;5090322;28;20208;-73
2022/02/02 22:02:41;;;;;;;10.40;6.13;;;;;;;;;;5092072;28;20208;-72
2022/02/02 22:05:08;;;;;;;13.38;6.65;;;;;;;;;;5093830;28;20688;-74
2022/02/02 22:07:36;;;;;;;12.82;5.57;;;;;;;;;;5091542;28;20193;-74
2022/02/02 22:10:06;;;;;;;12.25;6.15;;;;;;;;;;5088392;28;20263;-74
2022/02/02 22:12:35;;;;;;;12.52;5.95;;;;;;;;;;5084022;28;20201;-74
2022/02/02 22:15:03;;;;;;;11.68;5.90;;;;;;;;;;5094081;28;20218;-72
2022/02/02 22:17:32;;;;;;;10.90;5.70;;;;;;;;;;5092806;28;20334;-72
2022/02/02 22:20:04;;;;;;;17.48;8.23;;;;;;;;;;5092177;28;20549;-72
2022/02/02 22:22:31;;;;;;;8.57;6.57;;;;;;;;;;5085406;28;20198;-72
2022/02/02 22:24:58;;;;;;;11.02;7.00;;;;;;;;;;5092506;28;20224;-72
2022/02/02 22:27:25;;;;;;;11.68;6.07;;;;;;;;;;5093137;28;20660;-74
2022/02/02 22:29:53;;;;;;;9.63;5.90;;;;;;;;;;5091467;28;20189;-72
2022/02/02 22:32:20;;;;;;;13.35;6.25;;;;;;;;;;5093411;28;20190;-74
2022/02/02 22:34:48;;;;;;;9.25;5.93;;;;;;;;;;5092620;28;20598;-72
2022/02/02 22:37:15;;;;;;;8.48;5.07;;;;;;;;;;5079251;28;20263;-72
2022/02/02 22:39:43;;;;;;;13.88;6.63;;;;;;;;;;5089601;28;20193;-72
2022/02/02 22:42:12;;;;;;;9.10;5.38;;;;;;;;;;5093121;28;20217;-72
2022/02/02 22:44:39;;;;;;;11.57;6.05;;;;;;;;;;5091272;28;20197;-72
2022/02/02 22:47:08;;;;;;;11.10;6.07;;;;;;;;;;5092463;28;20571;-74
2022/02/02 22:49:37;;;;;;;10.57;5.53;;;;;;;;;;5089208;28;20197;-72
2022/02/02 22:52:08;;;;;;;9.02;5.38;;;;;;;;;;5091025;28;20193;-74
2022/02/02 22:54:37;;;;;;;5.90;4.78;;;;;;;;;;5091471;28;20241;-74
2022/02/02 22:57:05;;;;;;;9.73;5.63;;;;;;;;;;5088703;28;20190;-74
2022/02/02 22:59:32;;;;;;;10.52;6.45;;;;;;;;;;5091396;28;20288;-74
2022/02/02 23:02:07;;;;;;;16.35;7.60;;;;;;;;;;5093131;28;20662;-73